sensor_id;sensor_type;location;lat;lon;timestamp;temperature;humidity
8882;DHT22;4477;48.736;9.176;2023-07-13T00:01:04;16.20;96.10
8882;DHT22;4477;48.736;9.176;2023-07-13T00:03:32;16.10;96.40
8882;DHT22;4477;48.736;9.176;2023-07-13T00:06:01;16.10;97.50
8882;DHT22;4477;48.736;9.176;2023-07-13T00:08:31;16.00;97.90
8882;DHT22;4477;48.736;9.176;2023-07-13T00:10:59;15.90;97.70
8882;DHT22;4477;48.736;9.176;2023-07-13T00:13:26;15.80;98.20
8882;DHT22;4477;48.736;9.176;2023-07-13T00:15:53;15.70;98.90
8882;DHT22;4477;48.736;9.176;2023-07-13T00:18:20;15.60;98.00
8882;DHT22;4477;48.736;9.176;2023-07-13T00:20:47;15.60;98.10
8882;DHT22;4477;48.736;9.176;2023-07-13T00:23:14;15.60;99.30
8882;DHT22;4477;48.736;9.176;2023-07-13T00:25:43;15.50;99.30
8882;DHT22;4477;48.736;9.176;2023-07-13T00:28:10;15.50;98.30
8882;DHT22;4477;48.736;9.176;2023-07-13T00:30:37;15.50;98.60
8882;DHT22;4477;48.736;9.176;2023-07-13T00:33:04;15.50;99.00
8882;DHT22;4477;48.736;9.176;2023-07-13T00:35:31;15.50;97.30
8882;DHT22;4477;48.736;9.176;2023-07-13T00:37:58;15.50;97.20
8882;DHT22;4477;48.736;9.176;2023-07-13T00:40:25;15.40;98.00
8882;DHT22;4477;48.736;9.176;2023-07-13T00:42:56;15.50;97.00
8882;DHT22;4477;48.736;9.176;2023-07-13T00:48:33;15.50;96.70
8882;DHT22;4477;48.736;9.176;2023-07-13T00:51:01;15.40;97.30
8882;DHT22;4477;48.736;9.176;2023-07-13T00:53:29;15.40;97.50
8882;DHT22;4477;48.736;9.176;2023-07-13T00:55:57;15.30;97.30
8882;DHT22;4477;48.736;9.176;2023-07-13T00:58:27;15.20;97.40
8882;DHT22;4477;48.736;9.176;2023-07-13T01:00:54;15.40;98.30
8882;DHT22;4477;48.736;9.176;2023-07-13T01:03:21;15.40;98.70
8882;DHT22;4477;48.736;9.176;2023-07-13T01:05:49;15.50;96.80
8882;DHT22;4477;48.736;9.176;2023-07-13T01:08:17;15.60;96.60
8882;DHT22;4477;48.736;9.176;2023-07-13T01:10:51;15.50;96.20
8882;DHT22;4477;48.736;9.176;2023-07-13T01:13:18;15.60;95.70
8882;DHT22;4477;48.736;9.176;2023-07-13T01:15:48;15.60;96.20
8882;DHT22;4477;48.736;9.176;2023-07-13T01:18:18;15.60;96.20
8882;DHT22;4477;48.736;9.176;2023-07-13T01:20:53;15.60;95.70
8882;DHT22;4477;48.736;9.176;2023-07-13T01:23:20;15.60;95.20
8882;DHT22;4477;48.736;9.176;2023-07-13T01:25:47;15.70;94.90
8882;DHT22;4477;48.736;9.176;2023-07-13T01:28:14;15.70;94.00
8882;DHT22;4477;48.736;9.176;2023-07-13T01:30:43;15.60;94.50
8882;DHT22;4477;48.736;9.176;2023-07-13T01:33:12;15.50;95.80
8882;DHT22;4477;48.736;9.176;2023-07-13T01:35:39;15.40;95.80
8882;DHT22;4477;48.736;9.176;2023-07-13T01:38:08;15.20;97.10
8882;DHT22;4477;48.736;9.176;2023-07-13T01:40:36;14.90;98.40
8882;DHT22;4477;48.736;9.176;2023-07-13T01:43:04;14.60;99.50
8882;DHT22;4477;48.736;9.176;2023-07-13T01:45:31;14.40;99.90
8882;DHT22;4477;48.736;9.176;2023-07-13T01:47:58;14.30;99.90
8882;DHT22;4477;48.736;9.176;2023-07-13T01:50:25;14.20;99.90
8882;DHT22;4477;48.736;9.176;2023-07-13T01:52:52;14.10;99.90
8882;DHT22;4477;48.736;9.176;2023-07-13T01:55:21;13.90;99.90
8882;DHT22;4477;48.736;9.176;2023-07-13T01:57:48;13.90;99.90
8882;DHT22;4477;48.736;9.176;2023-07-13T02:00:15;13.80;99.90
8882;DHT22;4477;48.736;9.176;2023-07-13T02:02:42;13.80;99.90
8882;DHT22;4477;48.736;9.176;2023-07-13T02:05:09;13.70;99.90
8882;DHT22;4477;48.736;9.176;2023-07-13T02:07:37;13.60;99.90
8882;DHT22;4477;48.736;9.176;2023-07-13T02:10:05;13.50;99.90
8882;DHT22;4477;48.736;9.176;2023-07-13T02:12:34;13.40;99.90
8882;DHT22;4477;48.736;9.176;2023-07-13T02:15:01;13.30;99.90
8882;DHT22;4477;48.736;9.176;2023-07-13T02:17:28;13.20;99.90
8882;DHT22;4477;48.736;9.176;2023-07-13T02:19:54;13.10;99.90
8882;DHT22;4477;48.736;9.176;2023-07-13T02:22:22;13.10;99.90
8882;DHT22;4477;48.736;9.176;2023-07-13T02:24:49;12.90;99.90
8882;DHT22;4477;48.736;9.176;2023-07-13T02:27:16;12.80;99.90
8882;DHT22;4477;48.736;9.176;2023-07-13T02:29:44;12.70;99.90
8882;DHT22;4477;48.736;9.176;2023-07-13T02:32:11;12.60;99.90
8882;DHT22;4477;48.736;9.176;2023-07-13T02:34:40;12.60;99.90
8882;DHT22;4477;48.736;9.176;2023-07-13T02:37:07;12.60;99.90
8882;DHT22;4477;48.736;9.176;2023-07-13T02:39:33;12.60;99.90
8882;DHT22;4477;48.736;9.176;2023-07-13T02:42:00;12.50;99.90
8882;DHT22;4477;48.736;9.176;2023-07-13T02:44:27;12.50;99.90
8882;DHT22;4477;48.736;9.176;2023-07-13T02:46:55;12.40;99.90
8882;DHT22;4477;48.736;9.176;2023-07-13T02:49:22;12.40;99.90
8882;DHT22;4477;48.736;9.176;2023-07-13T02:51:51;12.20;99.90
8882;DHT22;4477;48.736;9.176;2023-07-13T02:54:18;12.10;99.90
8882;DHT22;4477;48.736;9.176;2023-07-13T02:56:44;12.10;99.90
8882;DHT22;4477;48.736;9.176;2023-07-13T02:59:11;12.00;99.90
8882;DHT22;4477;48.736;9.176;2023-07-13T03:01:38;12.00;99.90
8882;DHT22;4477;48.736;9.176;2023-07-13T03:04:07;12.00;99.90
8882;DHT22;4477;48.736;9.176;2023-07-13T03:06:34;12.10;99.90
8882;DHT22;4477;48.736;9.176;2023-07-13T03:09:01;12.10;99.90
8882;DHT22;4477;48.736;9.176;2023-07-13T03:11:29;12.10;99.90
8882;DHT22;4477;48.736;9.176;2023-07-13T03:13:57;12.20;99.90
8882;DHT22;4477;48.736;9.176;2023-07-13T03:16:24;12.20;99.90
8882;DHT22;4477;48.736;9.176;2023-07-13T03:18:51;12.30;99.90
8882;DHT22;4477;48.736;9.176;2023-07-13T03:21:19;12.30;99.90
8882;DHT22;4477;48.736;9.176;2023-07-13T03:23:46;12.40;99.90
8882;DHT22;4477;48.736;9.176;2023-07-13T03:26:17;12.60;99.90
8882;DHT22;4477;48.736;9.176;2023-07-13T03:28:44;12.70;99.90
8882;DHT22;4477;48.736;9.176;2023-07-13T03:31:13;13.00;99.90
8882;DHT22;4477;48.736;9.176;2023-07-13T03:33:41;13.20;99.90
8882;DHT22;4477;48.736;9.176;2023-07-13T03:36:14;13.30;99.90
8882;DHT22;4477;48.736;9.176;2023-07-13T03:38:43;13.50;99.90
8882;DHT22;4477;48.736;9.176;2023-07-13T03:41:09;13.70;99.90
8882;DHT22;4477;48.736;9.176;2023-07-13T03:43:36;13.80;99.90
8882;DHT22;4477;48.736;9.176;2023-07-13T03:46:03;14.00;99.90
8882;DHT22;4477;48.736;9.176;2023-07-13T03:48:30;14.10;99.90
8882;DHT22;4477;48.736;9.176;2023-07-13T03:50:56;14.20;99.90
8882;DHT22;4477;48.736;9.176;2023-07-13T03:53:23;14.30;99.90
8882;DHT22;4477;48.736;9.176;2023-07-13T03:55:51;14.40;99.90
8882;DHT22;4477;48.736;9.176;2023-07-13T03:58:30;14.50;99.90
8882;DHT22;4477;48.736;9.176;2023-07-13T04:00:58;14.60;99.90
8882;DHT22;4477;48.736;9.176;2023-07-13T04:03:25;14.60;99.90
8882;DHT22;4477;48.736;9.176;2023-07-13T04:05:53;14.70;99.90
8882;DHT22;4477;48.736;9.176;2023-07-13T04:08:20;14.70;99.90
8882;DHT22;4477;48.736;9.176;2023-07-13T04:10:47;14.70;99.90
8882;DHT22;4477;48.736;9.176;2023-07-13T04:13:15;14.70;99.90
8882;DHT22;4477;48.736;9.176;2023-07-13T04:15:41;14.70;99.90
8882;DHT22;4477;48.736;9.176;2023-07-13T04:18:08;14.80;99.90
8882;DHT22;4477;48.736;9.176;2023-07-13T04:20:35;14.90;99.90
8882;DHT22;4477;48.736;9.176;2023-07-13T04:23:02;15.00;99.90
8882;DHT22;4477;48.736;9.176;2023-07-13T04:25:29;15.10;99.90
8882;DHT22;4477;48.736;9.176;2023-07-13T04:27:56;15.20;99.90
8882;DHT22;4477;48.736;9.176;2023-07-13T04:30:24;15.40;99.90
8882;DHT22;4477;48.736;9.176;2023-07-13T04:32:52;15.40;99.90
8882;DHT22;4477;48.736;9.176;2023-07-13T04:35:19;15.50;99.90
8882;DHT22;4477;48.736;9.176;2023-07-13T04:37:47;15.50;99.90
8882;DHT22;4477;48.736;9.176;2023-07-13T04:40:15;15.50;99.90
8882;DHT22;4477;48.736;9.176;2023-07-13T04:42:43;15.50;99.90
8882;DHT22;4477;48.736;9.176;2023-07-13T04:45:10;15.40;99.90
8882;DHT22;4477;48.736;9.176;2023-07-13T04:47:38;15.30;99.90
8882;DHT22;4477;48.736;9.176;2023-07-13T04:50:06;15.30;99.90
8882;DHT22;4477;48.736;9.176;2023-07-13T04:52:33;15.20;99.90
8882;DHT22;4477;48.736;9.176;2023-07-13T04:55:00;15.10;99.90
8882;DHT22;4477;48.736;9.176;2023-07-13T04:57:27;15.00;99.90
8882;DHT22;4477;48.736;9.176;2023-07-13T04:59:54;14.90;99.90
8882;DHT22;4477;48.736;9.176;2023-07-13T05:02:21;14.90;99.90
8882;DHT22;4477;48.736;9.176;2023-07-13T05:04:50;15.00;99.90
8882;DHT22;4477;48.736;9.176;2023-07-13T05:07:16;15.00;99.90
8882;DHT22;4477;48.736;9.176;2023-07-13T05:09:43;15.20;99.90
8882;DHT22;4477;48.736;9.176;2023-07-13T05:12:10;15.40;99.90
8882;DHT22;4477;48.736;9.176;2023-07-13T05:14:37;15.60;99.90
8882;DHT22;4477;48.736;9.176;2023-07-13T05:17:04;15.90;99.90
8882;DHT22;4477;48.736;9.176;2023-07-13T06:16:08;16.10;99.90
8882;DHT22;4477;48.736;9.176;2023-07-13T06:23:34;19.50;83.50
8882;DHT22;4477;48.736;9.176;2023-07-13T06:28:28;20.30;76.50
8882;DHT22;4477;48.736;9.176;2023-07-13T06:30:57;21.80;65.70
8882;DHT22;4477;48.736;9.176;2023-07-13T06:33:24;22.30;62.80
8882;DHT22;4477;48.736;9.176;2023-07-13T06:35:51;22.10;63.30
8882;DHT22;4477;48.736;9.176;2023-07-13T06:38:18;22.20;64.50
8882;DHT22;4477;48.736;9.176;2023-07-13T06:40:45;22.90;63.20
8882;DHT22;4477;48.736;9.176;2023-07-13T06:43:12;23.80;58.50
8882;DHT22;4477;48.736;9.176;2023-07-13T06:45:40;24.20;56.30
8882;DHT22;4477;48.736;9.176;2023-07-13T06:48:09;24.20;55.30
8882;DHT22;4477;48.736;9.176;2023-07-13T06:50:36;23.90;56.70
8882;DHT22;4477;48.736;9.176;2023-07-13T06:53:02;24.00;56.00
8882;DHT22;4477;48.736;9.176;2023-07-13T06:55:29;24.30;55.90
8882;DHT22;4477;48.736;9.176;2023-07-13T06:57:57;24.80;54.20
8882;DHT22;4477;48.736;9.176;2023-07-13T07:00:24;25.40;53.30
8882;DHT22;4477;48.736;9.176;2023-07-13T07:02:51;25.60;51.90
8882;DHT22;4477;48.736;9.176;2023-07-13T07:05:19;26.10;51.80
8882;DHT22;4477;48.736;9.176;2023-07-13T07:07:47;26.40;49.50
8882;DHT22;4477;48.736;9.176;2023-07-13T07:10:14;26.70;48.60
8882;DHT22;4477;48.736;9.176;2023-07-13T07:12:41;27.00;48.30
8882;DHT22;4477;48.736;9.176;2023-07-13T07:15:08;27.10;47.70
8882;DHT22;4477;48.736;9.176;2023-07-13T07:17:35;27.10;46.70
8882;DHT22;4477;48.736;9.176;2023-07-13T07:20:03;27.00;47.30
8882;DHT22;4477;48.736;9.176;2023-07-13T07:22:31;27.10;47.00
8882;DHT22;4477;48.736;9.176;2023-07-13T07:24:58;27.10;45.50
8882;DHT22;4477;48.736;9.176;2023-07-13T07:27:25;26.90;45.90
8882;DHT22;4477;48.736;9.176;2023-07-13T07:29:53;26.90;46.50
8882;DHT22;4477;48.736;9.176;2023-07-13T07:32:20;26.70;45.60
8882;DHT22;4477;48.736;9.176;2023-07-13T07:34:47;26.80;44.50
8882;DHT22;4477;48.736;9.176;2023-07-13T07:37:14;26.40;45.10
8882;DHT22;4477;48.736;9.176;2023-07-13T07:39:42;26.60;45.20
8882;DHT22;4477;48.736;9.176;2023-07-13T07:42:10;26.50;46.80
8882;DHT22;4477;48.736;9.176;2023-07-13T07:44:38;26.50;48.50
8882;DHT22;4477;48.736;9.176;2023-07-13T07:47:05;26.70;45.60
8882;DHT22;4477;48.736;9.176;2023-07-13T07:49:32;26.70;45.80
8882;DHT22;4477;48.736;9.176;2023-07-13T07:51:59;26.80;43.50
8882;DHT22;4477;48.736;9.176;2023-07-13T07:54:26;26.70;44.50
8882;DHT22;4477;48.736;9.176;2023-07-13T07:56:54;26.70;46.20
8882;DHT22;4477;48.736;9.176;2023-07-13T07:59:20;26.80;45.00
8882;DHT22;4477;48.736;9.176;2023-07-13T08:01:47;26.70;45.80
8882;DHT22;4477;48.736;9.176;2023-07-13T08:04:15;26.60;45.80
8882;DHT22;4477;48.736;9.176;2023-07-13T08:06:42;26.50;48.00
8882;DHT22;4477;48.736;9.176;2023-07-13T08:09:09;26.40;45.20
8882;DHT22;4477;48.736;9.176;2023-07-13T08:11:36;26.60;46.50
8882;DHT22;4477;48.736;9.176;2023-07-13T08:14:04;26.50;45.30
8882;DHT22;4477;48.736;9.176;2023-07-13T08:16:31;26.50;45.10
8882;DHT22;4477;48.736;9.176;2023-07-13T08:18:59;26.70;46.80
8882;DHT22;4477;48.736;9.176;2023-07-13T08:21:26;26.60;45.50
8882;DHT22;4477;48.736;9.176;2023-07-13T08:23:53;27.00;44.90
8882;DHT22;4477;48.736;9.176;2023-07-13T08:26:20;26.80;43.70
8882;DHT22;4477;48.736;9.176;2023-07-13T08:28:47;26.90;42.40
8882;DHT22;4477;48.736;9.176;2023-07-13T08:31:15;26.80;43.80
8882;DHT22;4477;48.736;9.176;2023-07-13T08:33:42;26.80;44.30
8882;DHT22;4477;48.736;9.176;2023-07-13T08:36:09;26.80;45.40
8882;DHT22;4477;48.736;9.176;2023-07-13T08:38:36;26.90;44.20
8882;DHT22;4477;48.736;9.176;2023-07-13T08:41:11;27.00;44.90
8882;DHT22;4477;48.736;9.176;2023-07-13T08:43:39;27.20;44.70
8882;DHT22;4477;48.736;9.176;2023-07-13T08:46:11;27.70;43.10
8882;DHT22;4477;48.736;9.176;2023-07-13T08:48:44;27.80;49.10
8882;DHT22;4477;48.736;9.176;2023-07-13T08:51:24;27.60;47.60
8882;DHT22;4477;48.736;9.176;2023-07-13T08:53:56;27.30;45.40
8882;DHT22;4477;48.736;9.176;2023-07-13T08:56:26;27.20;48.30
8882;DHT22;4477;48.736;9.176;2023-07-13T08:58:57;27.50;45.20
8882;DHT22;4477;48.736;9.176;2023-07-13T09:01:29;28.00;45.30
8882;DHT22;4477;48.736;9.176;2023-07-13T09:04:04;28.40;41.90
8882;DHT22;4477;48.736;9.176;2023-07-13T09:06:37;28.50;43.70
8882;DHT22;4477;48.736;9.176;2023-07-13T09:09:24;28.40;41.20
8882;DHT22;4477;48.736;9.176;2023-07-13T09:12:03;28.50;41.60
8882;DHT22;4477;48.736;9.176;2023-07-13T09:14:41;28.80;43.00
8882;DHT22;4477;48.736;9.176;2023-07-13T09:17:14;29.20;42.90
8882;DHT22;4477;48.736;9.176;2023-07-13T09:19:46;29.00;39.70
8882;DHT22;4477;48.736;9.176;2023-07-13T09:22:18;27.90;40.60
8882;DHT22;4477;48.736;9.176;2023-07-13T09:24:52;26.70;45.20
8882;DHT22;4477;48.736;9.176;2023-07-13T09:27:23;26.10;46.00
8882;DHT22;4477;48.736;9.176;2023-07-13T09:30:04;26.10;47.60
8882;DHT22;4477;48.736;9.176;2023-07-13T09:32:34;26.30;46.50
8882;DHT22;4477;48.736;9.176;2023-07-13T09:35:10;26.80;43.80
8882;DHT22;4477;48.736;9.176;2023-07-13T09:37:38;27.00;45.70
8882;DHT22;4477;48.736;9.176;2023-07-13T09:40:13;28.10;42.00
8882;DHT22;4477;48.736;9.176;2023-07-13T09:42:42;29.20;44.30
8882;DHT22;4477;48.736;9.176;2023-07-13T09:45:09;30.10;38.40
8882;DHT22;4477;48.736;9.176;2023-07-13T09:47:39;30.30;40.30
8882;DHT22;4477;48.736;9.176;2023-07-13T09:50:14;29.70;41.10
8882;DHT22;4477;48.736;9.176;2023-07-13T09:52:44;29.80;41.40
8882;DHT22;4477;48.736;9.176;2023-07-13T09:55:30;29.70;40.50
8882;DHT22;4477;48.736;9.176;2023-07-13T09:57:57;30.10;40.60
8882;DHT22;4477;48.736;9.176;2023-07-13T10:00:27;30.40;37.70
8882;DHT22;4477;48.736;9.176;2023-07-13T10:03:02;30.10;39.90
8882;DHT22;4477;48.736;9.176;2023-07-13T10:05:39;30.10;38.90
8882;DHT22;4477;48.736;9.176;2023-07-13T10:08:16;30.40;39.70
8882;DHT22;4477;48.736;9.176;2023-07-13T10:10:44;30.30;40.00
8882;DHT22;4477;48.736;9.176;2023-07-13T10:13:29;30.00;40.60
8882;DHT22;4477;48.736;9.176;2023-07-13T10:15:57;29.40;38.60
8882;DHT22;4477;48.736;9.176;2023-07-13T10:18:25;28.90;42.60
8882;DHT22;4477;48.736;9.176;2023-07-13T10:21:00;28.80;41.40
8882;DHT22;4477;48.736;9.176;2023-07-13T10:23:36;28.90;40.10
8882;DHT22;4477;48.736;9.176;2023-07-13T10:26:05;28.70;44.00
8882;DHT22;4477;48.736;9.176;2023-07-13T10:28:38;29.00;40.30
8882;DHT22;4477;48.736;9.176;2023-07-13T10:31:12;29.40;42.30
8882;DHT22;4477;48.736;9.176;2023-07-13T10:33:40;30.00;39.20
8882;DHT22;4477;48.736;9.176;2023-07-13T10:36:14;30.00;36.70
8882;DHT22;4477;48.736;9.176;2023-07-13T10:38:43;29.80;36.90
8882;DHT22;4477;48.736;9.176;2023-07-13T10:41:15;29.50;39.80
8882;DHT22;4477;48.736;9.176;2023-07-13T10:43:45;29.60;40.50
8882;DHT22;4477;48.736;9.176;2023-07-13T10:46:17;29.20;39.40
8882;DHT22;4477;48.736;9.176;2023-07-13T10:48:48;28.60;40.80
8882;DHT22;4477;48.736;9.176;2023-07-13T10:51:18;27.90;41.70
8882;DHT22;4477;48.736;9.176;2023-07-13T10:53:48;27.30;43.20
8882;DHT22;4477;48.736;9.176;2023-07-13T10:56:34;27.20;43.10
8882;DHT22;4477;48.736;9.176;2023-07-13T10:59:09;27.00;42.20
8882;DHT22;4477;48.736;9.176;2023-07-13T11:01:41;26.80;41.50
8882;DHT22;4477;48.736;9.176;2023-07-13T11:04:14;26.90;42.80
8882;DHT22;4477;48.736;9.176;2023-07-13T11:06:43;27.30;44.80
8882;DHT22;4477;48.736;9.176;2023-07-13T11:09:34;28.00;42.70
8882;DHT22;4477;48.736;9.176;2023-07-13T11:12:06;28.60;42.40
8882;DHT22;4477;48.736;9.176;2023-07-13T11:14:36;29.10;44.20
8882;DHT22;4477;48.736;9.176;2023-07-13T11:20:22;30.80;42.00
8882;DHT22;4477;48.736;9.176;2023-07-13T11:22:52;30.90;38.10
8882;DHT22;4477;48.736;9.176;2023-07-13T11:25:27;30.90;40.50
8882;DHT22;4477;48.736;9.176;2023-07-13T11:28:07;31.20;39.30
8882;DHT22;4477;48.736;9.176;2023-07-13T11:30:43;31.20;40.70
8882;DHT22;4477;48.736;9.176;2023-07-13T11:33:16;30.60;40.30
8882;DHT22;4477;48.736;9.176;2023-07-13T11:35:52;30.10;44.60
8882;DHT22;4477;48.736;9.176;2023-07-13T11:38:24;30.60;38.00
8882;DHT22;4477;48.736;9.176;2023-07-13T11:40:54;30.80;39.50
8882;DHT22;4477;48.736;9.176;2023-07-13T11:43:23;30.70;39.40
8882;DHT22;4477;48.736;9.176;2023-07-13T11:45:50;30.80;37.50
8882;DHT22;4477;48.736;9.176;2023-07-13T11:48:22;30.10;41.30
8882;DHT22;4477;48.736;9.176;2023-07-13T11:50:51;29.20;41.60
8882;DHT22;4477;48.736;9.176;2023-07-13T11:53:21;29.00;42.60
8882;DHT22;4477;48.736;9.176;2023-07-13T11:55:48;29.40;39.60
8882;DHT22;4477;48.736;9.176;2023-07-13T11:58:21;29.10;39.00
8882;DHT22;4477;48.736;9.176;2023-07-13T12:00:49;28.50;40.00
8882;DHT22;4477;48.736;9.176;2023-07-13T12:03:20;28.10;41.20
8882;DHT22;4477;48.736;9.176;2023-07-13T12:05:57;27.50;41.00
8882;DHT22;4477;48.736;9.176;2023-07-13T12:08:27;27.00;44.10
8882;DHT22;4477;48.736;9.176;2023-07-13T12:10:59;27.30;45.60
8882;DHT22;4477;48.736;9.176;2023-07-13T12:13:27;29.10;42.50
8882;DHT22;4477;48.736;9.176;2023-07-13T12:15:56;30.00;40.70
8882;DHT22;4477;48.736;9.176;2023-07-13T12:18:29;30.10;40.00
8882;DHT22;4477;48.736;9.176;2023-07-13T12:20:58;30.20;40.20
8882;DHT22;4477;48.736;9.176;2023-07-13T12:23:30;30.30;39.30
8882;DHT22;4477;48.736;9.176;2023-07-13T12:26:01;29.60;39.30
8882;DHT22;4477;48.736;9.176;2023-07-13T12:28:33;28.90;39.70
8882;DHT22;4477;48.736;9.176;2023-07-13T12:31:02;28.60;41.70
8882;DHT22;4477;48.736;9.176;2023-07-13T12:33:30;29.60;41.00
8882;DHT22;4477;48.736;9.176;2023-07-13T12:36:01;31.10;38.20
8882;DHT22;4477;48.736;9.176;2023-07-13T12:38:30;32.00;36.30
8882;DHT22;4477;48.736;9.176;2023-07-13T12:40:57;32.70;35.80
8882;DHT22;4477;48.736;9.176;2023-07-13T12:43:25;32.90;34.20
8882;DHT22;4477;48.736;9.176;2023-07-13T12:45:58;32.50;37.10
8882;DHT22;4477;48.736;9.176;2023-07-13T12:48:26;32.40;33.20
8882;DHT22;4477;48.736;9.176;2023-07-13T12:50:55;31.40;36.80
8882;DHT22;4477;48.736;9.176;2023-07-13T12:53:28;30.30;37.70
8882;DHT22;4477;48.736;9.176;2023-07-13T12:56:01;29.70;38.40
8882;DHT22;4477;48.736;9.176;2023-07-13T12:58:32;30.10;35.10
8882;DHT22;4477;48.736;9.176;2023-07-13T13:01:02;31.30;37.40
8882;DHT22;4477;48.736;9.176;2023-07-13T13:03:32;32.20;34.90
8882;DHT22;4477;48.736;9.176;2023-07-13T13:06:02;32.60;32.20
8882;DHT22;4477;48.736;9.176;2023-07-13T13:08:30;32.90;34.20
8882;DHT22;4477;48.736;9.176;2023-07-13T13:10:58;33.00;31.30
8882;DHT22;4477;48.736;9.176;2023-07-13T13:13:25;32.00;35.30
8882;DHT22;4477;48.736;9.176;2023-07-13T13:15:52;32.00;34.90
8882;DHT22;4477;48.736;9.176;2023-07-13T13:18:20;32.80;34.20
8882;DHT22;4477;48.736;9.176;2023-07-13T13:20:51;33.30;34.50
8882;DHT22;4477;48.736;9.176;2023-07-13T13:23:19;33.80;32.30
8882;DHT22;4477;48.736;9.176;2023-07-13T13:25:51;33.30;34.40
8882;DHT22;4477;48.736;9.176;2023-07-13T13:28:20;32.90;33.40
8882;DHT22;4477;48.736;9.176;2023-07-13T13:30:49;32.90;33.40
8882;DHT22;4477;48.736;9.176;2023-07-13T13:33:18;33.30;32.60
8882;DHT22;4477;48.736;9.176;2023-07-13T13:35:46;33.80;31.70
8882;DHT22;4477;48.736;9.176;2023-07-13T13:38:14;33.50;32.20
8882;DHT22;4477;48.736;9.176;2023-07-13T13:40:42;32.50;33.50
8882;DHT22;4477;48.736;9.176;2023-07-13T13:43:15;32.80;32.90
8882;DHT22;4477;48.736;9.176;2023-07-13T13:45:45;32.70;33.80
8882;DHT22;4477;48.736;9.176;2023-07-13T13:48:17;33.40;31.20
8882;DHT22;4477;48.736;9.176;2023-07-13T13:50:45;34.20;34.20
8882;DHT22;4477;48.736;9.176;2023-07-13T13:53:12;34.10;30.10
8882;DHT22;4477;48.736;9.176;2023-07-13T13:55:40;33.30;31.00
8882;DHT22;4477;48.736;9.176;2023-07-13T13:58:08;32.30;33.40
8882;DHT22;4477;48.736;9.176;2023-07-13T14:00:35;31.80;33.00
8882;DHT22;4477;48.736;9.176;2023-07-13T14:03:04;32.60;34.20
8882;DHT22;4477;48.736;9.176;2023-07-13T14:05:32;33.80;31.90
8882;DHT22;4477;48.736;9.176;2023-07-13T14:07:59;33.20;31.20
8882;DHT22;4477;48.736;9.176;2023-07-13T14:10:26;32.40;32.90
8882;DHT22;4477;48.736;9.176;2023-07-13T14:12:55;31.20;34.00
8882;DHT22;4477;48.736;9.176;2023-07-13T14:15:24;30.10;34.80
8882;DHT22;4477;48.736;9.176;2023-07-13T14:17:52;29.80;38.10
8882;DHT22;4477;48.736;9.176;2023-07-13T14:20:22;29.70;35.90
8882;DHT22;4477;48.736;9.176;2023-07-13T14:22:51;29.20;37.40
8882;DHT22;4477;48.736;9.176;2023-07-13T14:25:19;28.60;39.30
8882;DHT22;4477;48.736;9.176;2023-07-13T14:27:49;28.00;38.30
8882;DHT22;4477;48.736;9.176;2023-07-13T14:30:18;27.60;40.10
8882;DHT22;4477;48.736;9.176;2023-07-13T14:32:46;27.30;39.50
8882;DHT22;4477;48.736;9.176;2023-07-13T14:35:15;27.00;41.70
8882;DHT22;4477;48.736;9.176;2023-07-13T14:37:44;26.50;42.30
8882;DHT22;4477;48.736;9.176;2023-07-13T14:40:13;26.40;42.10
8882;DHT22;4477;48.736;9.176;2023-07-13T14:42:40;27.20;41.70
8882;DHT22;4477;48.736;9.176;2023-07-13T14:45:13;27.30;41.00
8882;DHT22;4477;48.736;9.176;2023-07-13T14:47:40;28.10;40.80
8882;DHT22;4477;48.736;9.176;2023-07-13T14:50:13;30.10;37.10
8882;DHT22;4477;48.736;9.176;2023-07-13T14:52:43;31.80;33.20
8882;DHT22;4477;48.736;9.176;2023-07-13T14:55:11;32.80;33.20
8882;DHT22;4477;48.736;9.176;2023-07-13T14:57:38;33.50;31.40
8882;DHT22;4477;48.736;9.176;2023-07-13T15:00:13;33.80;32.10
8882;DHT22;4477;48.736;9.176;2023-07-13T15:02:43;34.70;29.30
8882;DHT22;4477;48.736;9.176;2023-07-13T15:05:14;35.20;29.90
8882;DHT22;4477;48.736;9.176;2023-07-13T15:07:42;35.00;28.70
8882;DHT22;4477;48.736;9.176;2023-07-13T15:10:14;34.00;30.00
8882;DHT22;4477;48.736;9.176;2023-07-13T15:12:41;33.00;31.10
8882;DHT22;4477;48.736;9.176;2023-07-13T15:15:11;31.80;32.60
8882;DHT22;4477;48.736;9.176;2023-07-13T15:17:40;30.60;35.40
8882;DHT22;4477;48.736;9.176;2023-07-13T15:20:16;30.00;36.20
8882;DHT22;4477;48.736;9.176;2023-07-13T15:22:45;31.40;34.90
8882;DHT22;4477;48.736;9.176;2023-07-13T15:25:16;33.30;32.70
8882;DHT22;4477;48.736;9.176;2023-07-13T15:27:44;34.60;32.10
8882;DHT22;4477;48.736;9.176;2023-07-13T15:30:12;35.30;29.10
8882;DHT22;4477;48.736;9.176;2023-07-13T15:32:40;34.40;29.80
8882;DHT22;4477;48.736;9.176;2023-07-13T15:35:13;33.60;31.70
8882;DHT22;4477;48.736;9.176;2023-07-13T15:37:41;33.50;30.00
8882;DHT22;4477;48.736;9.176;2023-07-13T15:40:11;31.50;33.50
8882;DHT22;4477;48.736;9.176;2023-07-13T15:42:38;29.80;36.20
8882;DHT22;4477;48.736;9.176;2023-07-13T15:45:18;29.50;36.00
8882;DHT22;4477;48.736;9.176;2023-07-13T15:47:45;28.90;37.00
8882;DHT22;4477;48.736;9.176;2023-07-13T15:50:14;29.70;37.60
8882;DHT22;4477;48.736;9.176;2023-07-13T15:52:42;31.00;35.60
8882;DHT22;4477;48.736;9.176;2023-07-13T15:55:12;32.30;32.30
8882;DHT22;4477;48.736;9.176;2023-07-13T15:57:43;33.40;32.80
8882;DHT22;4477;48.736;9.176;2023-07-13T16:00:21;33.40;32.50
8882;DHT22;4477;48.736;9.176;2023-07-13T16:02:48;33.80;30.00
8882;DHT22;4477;48.736;9.176;2023-07-13T16:05:15;33.90;30.00
8882;DHT22;4477;48.736;9.176;2023-07-13T16:07:43;33.80;31.60
8882;DHT22;4477;48.736;9.176;2023-07-13T16:10:15;34.20;29.30
8882;DHT22;4477;48.736;9.176;2023-07-13T16:12:42;33.90;31.20
8882;DHT22;4477;48.736;9.176;2023-07-13T16:15:13;31.70;31.50
8882;DHT22;4477;48.736;9.176;2023-07-13T16:17:40;29.50;34.70
8882;DHT22;4477;48.736;9.176;2023-07-13T16:20:09;27.70;37.10
8882;DHT22;4477;48.736;9.176;2023-07-13T16:22:38;26.50;39.80
8882;DHT22;4477;48.736;9.176;2023-07-13T16:25:15;25.80;42.80
8882;DHT22;4477;48.736;9.176;2023-07-13T16:27:43;25.70;42.20
8882;DHT22;4477;48.736;9.176;2023-07-13T16:30:16;25.50;43.30
8882;DHT22;4477;48.736;9.176;2023-07-13T16:32:47;25.40;43.30
8882;DHT22;4477;48.736;9.176;2023-07-13T16:35:14;25.20;43.90
8882;DHT22;4477;48.736;9.176;2023-07-13T16:37:41;25.10;44.00
8882;DHT22;4477;48.736;9.176;2023-07-13T16:40:22;25.00;45.00
8882;DHT22;4477;48.736;9.176;2023-07-13T16:42:50;24.70;43.70
8882;DHT22;4477;48.736;9.176;2023-07-13T16:45:19;24.40;44.90
8882;DHT22;4477;48.736;9.176;2023-07-13T16:47:49;24.20;47.10
8882;DHT22;4477;48.736;9.176;2023-07-13T16:50:19;24.20;45.40
8882;DHT22;4477;48.736;9.176;2023-07-13T16:52:47;24.10;47.00
8882;DHT22;4477;48.736;9.176;2023-07-13T16:55:17;24.20;44.70
8882;DHT22;4477;48.736;9.176;2023-07-13T16:57:49;24.30;44.60
8882;DHT22;4477;48.736;9.176;2023-07-13T17:00:19;24.40;45.90
8882;DHT22;4477;48.736;9.176;2023-07-13T17:02:49;24.40;46.00
8882;DHT22;4477;48.736;9.176;2023-07-13T17:05:18;24.50;46.80
8882;DHT22;4477;48.736;9.176;2023-07-13T17:07:45;24.60;45.20
8882;DHT22;4477;48.736;9.176;2023-07-13T17:10:18;24.70;45.50
8882;DHT22;4477;48.736;9.176;2023-07-13T17:12:48;24.80;44.40
8882;DHT22;4477;48.736;9.176;2023-07-13T17:15:16;25.10;45.30
8882;DHT22;4477;48.736;9.176;2023-07-13T17:17:44;25.30;43.90
8882;DHT22;4477;48.736;9.176;2023-07-13T17:20:15;25.00;45.00
8882;DHT22;4477;48.736;9.176;2023-07-13T17:22:42;24.70;45.80
8882;DHT22;4477;48.736;9.176;2023-07-13T17:25:12;24.90;44.40